Remmel, Arkansas
Current Conditions -  °F | °C
As of 8:56 AM on Friday 31 Oct 2014 (Local Time) from KM19 Reporting Station
Clear Clear  
Wind Chill: 52°   Ceiling: Unl
Heat Index: 52°   Visibility: 10mi
Dew Point: 45°   Wind: 20mph
Humidity: 77%   Direction: 350°N
Pressure: 30.17"   Gusts: 24mph
Location:  35.5678°N, 91.2073°W
Report Text: KM19 311356Z AUTO 35017G21KT 10SM CLR 11/07 A3017 RMK AO2 T01110072 SLP216
Loading
Personal Weather Stations






























Interactive Weather Map
Tropical Storm Tracking
New forecast layout! Learn more

10-Day Weather Forecast

Advertisements
Track Severe Weather on mobile